Time;durP1;ratioP1;P1;durP2;ratioP2;P2;SDS_P1;SDS_P2;PMS_P1;PMS_P2;Temp;Humidity;BMP_temperature;BMP_pressure;BME280_temperature;BME280_humidity;BME280_pressure;Samples;Min_cycle;Max_cycle;Signal;HPM_P1;HPM_P2
2023/10/11 00:01:58;;;;;;;4.28;3.63;;;20.00;70.80;;;;;;5013529;28;20037;-50
2023/10/11 00:04:23;;;;;;;4.75;3.33;;;20.00;70.90;;;;;;5021171;28;20026;-51
2023/10/11 00:06:56;;;;;;;6.63;3.78;;;19.90;70.80;;;;;;5014822;28;21066;-51
2023/10/11 00:09:34;;;;;;;4.35;3.35;;;20.00;70.80;;;;;;5007535;28;20069;-56
2023/10/11 00:12:04;;;;;;;6.35;3.65;;;20.00;70.80;;;;;;5005153;28;20026;-53
2023/10/11 00:14:33;;;;;;;4.65;3.80;;;20.00;70.90;;;;;;5007425;28;20780;-56
2023/10/11 00:16:58;;;;;;;4.53;3.75;;;20.00;70.90;;;;;;5010964;28;20089;-58
2023/10/11 00:19:28;;;;;;;5.90;3.40;;;20.00;70.80;;;;;;5022507;28;20492;-55
2023/10/11 00:21:54;;;;;;;4.75;3.70;;;19.90;70.80;;;;;;5006849;28;20569;-54
2023/10/11 00:24:23;;;;;;;5.03;3.67;;;20.00;70.90;;;;;;5005874;28;20128;-57
2023/10/11 00:26:49;;;;;;;4.40;3.03;;;19.90;70.80;;;;;;5006763;28;20048;-54
2023/10/11 00:29:15;;;;;;;6.65;3.78;;;19.90;70.70;;;;;;5009607;28;20029;-52
2023/10/11 00:31:41;;;;;;;5.00;3.20;;;20.00;70.80;;;;;;5007364;28;20041;-55
2023/10/11 00:34:10;;;;;;;4.82;3.67;;;19.90;70.70;;;;;;5006319;28;20046;-60
2023/10/11 00:36:36;;;;;;;6.00;4.10;;;20.00;70.80;;;;;;5014612;28;20033;-53
2023/10/11 00:39:01;;;;;;;6.35;3.50;;;20.00;70.80;;;;;;5003820;28;20030;-54
2023/10/11 00:41:31;;;;;;;4.72;3.60;;;20.00;70.90;;;;;;5010544;28;20045;-59
2023/10/11 00:43:57;;;;;;;4.55;3.53;;;20.00;70.80;;;;;;5009659;28;20448;-58
2023/10/11 00:49:12;;;;;;;5.03;3.78;;;20.00;70.80;;;;;;5006661;28;20045;-57
2023/10/11 00:51:41;;;;;;;4.25;3.25;;;19.90;70.70;;;;;;5006716;28;20058;-59
2023/10/11 00:54:07;;;;;;;4.65;3.35;;;20.00;70.80;;;;;;5010259;28;20065;-56
2023/10/11 00:56:32;;;;;;;4.22;3.00;;;20.00;70.90;;;;;;5011885;28;20029;-57
2023/10/11 00:59:08;;;;;;;4.47;3.25;;;20.00;70.80;;;;;;5011366;28;20610;-57
2023/10/11 01:01:37;;;;;;;;;;;20.00;70.80;;;;;;5021783;28;20040;-56
2023/10/11 01:04:06;;;;;;;5.57;3.25;;;20.00;70.80;;;;;;5034182;28;19909;-55
2023/10/11 01:06:34;;;;;;;5.25;3.45;;;20.00;70.80;;;;;;5035931;28;20655;-55
2023/10/11 01:09:00;;;;;;;5.45;4.00;;;20.00;70.80;;;;;;5024327;28;20030;-55
2023/10/11 01:11:27;;;;;;;6.32;3.80;;;20.00;70.70;;;;;;5029496;28;20486;-56
2023/10/11 01:13:53;;;;;;;4.85;3.63;;;20.00;70.70;;;;;;5031307;28;20506;-55
2023/10/11 01:16:24;;;;;;;4.97;3.45;;;19.90;70.70;;;;;;5035092;28;20036;-56
2023/10/11 01:18:50;;;;;;;5.10;3.78;;;20.00;70.80;;;;;;5033526;28;20042;-56
2023/10/11 01:21:16;;;;;;;4.40;3.40;;;19.90;70.70;;;;;;5028093;28;20677;-55
2023/10/11 01:23:41;;;;;;;4.57;3.25;;;20.00;70.70;;;;;;5027192;28;20064;-55
2023/10/11 01:26:08;;;;;;;3.97;2.97;;;20.00;70.80;;;;;;5030199;28;20083;-56
2023/10/11 01:28:35;;;;;;;4.10;3.20;;;20.00;70.80;;;;;;5012271;28;20487;-55
2023/10/11 01:31:11;;;;;;;4.00;3.20;;;20.00;70.80;;;;;;5011584;28;20025;-56
2023/10/11 01:33:42;;;;;;;4.60;3.38;;;20.00;70.70;;;;;;5012898;28;20434;-57
2023/10/11 01:36:14;;;;;;;5.18;3.60;;;19.90;70.60;;;;;;5000848;28;20068;-57
2023/10/11 01:38:47;;;;;;;4.47;3.55;;;19.90;70.60;;;;;;5005963;28;20049;-56
2023/10/11 01:41:15;;;;;;;6.35;3.58;;;20.00;70.80;;;;;;5004633;28;20026;-53
2023/10/11 01:43:42;;;;;;;6.47;3.75;;;19.90;70.60;;;;;;5009862;28;20044;-55
2023/10/11 01:46:07;;;;;;;4.15;3.25;;;20.00;70.80;;;;;;5005456;28;20051;-52
2023/10/11 01:48:33;;;;;;;6.75;3.80;;;20.00;70.70;;;;;;5007514;28;20026;-55
2023/10/11 01:51:05;;;;;;;5.45;3.63;;;20.00;70.70;;;;;;5008804;28;20026;-55
2023/10/11 01:53:31;;;;;;;4.63;3.17;;;20.00;71.30;;;;;;5006211;28;20029;-58
2023/10/11 01:55:57;;;;;;;5.43;3.70;;;20.00;70.70;;;;;;5009312;28;20049;-57
2023/10/11 01:58:23;;;;;;;6.57;3.35;;;20.00;70.80;;;;;;5005931;28;20526;-54
2023/10/11 02:00:49;;;;;;;5.18;3.92;;;20.00;70.70;;;;;;5021514;28;20029;-55
2023/10/11 02:03:15;;;;;;;3.85;3.22;;;20.00;70.80;;;;;;5006880;28;20522;-54
2023/10/11 02:05:40;;;;;;;5.20;3.63;;;20.00;70.70;;;;;;5005279;28;20041;-58
2023/10/11 02:08:06;;;;;;;5.38;3.22;;;20.00;70.80;;;;;;5003689;28;20026;-57
2023/10/11 02:10:36;;;;;;;5.75;3.40;;;20.00;70.80;;;;;;5002721;28;20532;-53
2023/10/11 02:13:04;;;;;;;4.72;3.15;;;19.90;70.70;;;;;;5017268;28;20030;-56
2023/10/11 02:15:30;;;;;;;4.53;3.25;;;19.90;70.60;;;;;;5008256;28;20441;-57
2023/10/11 02:17:56;;;;;;;5.38;3.45;;;20.00;70.70;;;;;;5005780;28;20491;-59
2023/10/11 02:20:22;;;;;;;6.35;3.88;;;20.00;70.70;;;;;;5002788;28;20065;-56
2023/10/11 02:22:52;;;;;;;4.15;3.28;;;19.90;70.60;;;;;;5006274;28;20487;-55
2023/10/11 02:25:19;;;;;;;5.75;3.42;;;20.00;70.70;;;;;;5007252;28;20122;-55
2023/10/11 02:27:49;;;;;;;6.15;3.95;;;20.00;70.70;;;;;;5007276;28;20559;-52
2023/10/11 02:30:20;;;;;;;5.07;3.40;;;20.00;70.60;;;;;;5006015;28;20491;-55
2023/10/11 02:32:46;;;;;;;5.20;3.10;;;20.00;70.70;;;;;;5008357;28;20026;-56
2023/10/11 02:35:13;;;;;;;5.55;4.20;;;19.90;71.20;;;;;;5007353;28;20559;-57
2023/10/11 02:37:40;;;;;;;5.57;3.58;;;20.00;70.60;;;;;;5000539;28;20030;-56
2023/10/11 02:40:08;;;;;;;3.95;2.95;;;19.90;70.50;;;;;;5012134;28;20040;-54
2023/10/11 02:42:37;;;;;;;5.30;3.80;;;20.00;70.60;;;;;;5024165;28;20068;-57
2023/10/11 02:45:08;;;;;;;5.75;4.03;;;20.00;70.70;;;;;;5023199;28;20034;-56
2023/10/11 02:47:37;;;;;;;4.97;3.47;;;20.00;70.60;;;;;;5024667;28;20037;-57
2023/10/11 02:50:05;;;;;;;4.95;3.50;;;20.00;70.60;;;;;;5023766;28;20041;-55
2023/10/11 02:52:37;;;;;;;7.35;4.18;;;20.00;70.60;;;;;;5023627;28;20053;-52
2023/10/11 02:57:44;;;;;;;4.22;3.28;;;20.00;70.60;;;;;;5025937;28;20037;-56
2023/10/11 03:00:22;;;;;;;5.80;3.47;;;20.00;70.60;;;;;;5027858;28;20041;-57
2023/10/11 03:02:55;;;;;;;4.40;3.20;;;20.00;70.60;;;;;;5028667;28;20479;-56
2023/10/11 03:05:27;;;;;;;5.53;3.30;;;19.90;70.60;;;;;;5024527;28;20094;-53
2023/10/11 03:08:13;;;;;;;5.50;3.00;;;19.90;70.60;;;;;;5021111;28;20541;-53
2023/10/11 03:10:43;;;;;;;5.57;3.20;;;19.90;70.60;;;;;;5022314;28;20040;-61
2023/10/11 03:13:19;;;;;;;4.75;3.53;;;20.00;70.70;;;;;;5023061;28;20109;-59
2023/10/11 03:15:54;;;;;;;5.30;3.60;;;20.00;70.70;;;;;;5021262;28;20040;-54
2023/10/11 03:18:25;;;;;;;;;;;19.90;70.60;;;;;;5024618;28;20076;-56
2023/10/11 03:23:54;;;;;;;4.78;3.78;;;20.00;70.60;;;;;;5002357;28;20030;-54
2023/10/11 03:29:05;;;;;;;4.60;3.22;;;19.90;70.60;;;;;;5024001;28;20067;-55
2023/10/11 03:31:32;;;;;;;4.93;3.28;;;20.00;70.60;;;;;;5029125;28;20025;-51
2023/10/11 03:34:00;;;;;;;5.50;3.30;;;20.00;70.50;;;;;;5030155;28;20703;-55
2023/10/11 03:36:31;;;;;;;5.63;3.65;;;20.00;70.60;;;;;;5026217;28;20113;-56
2023/10/11 03:38:57;;;;;;;4.72;3.55;;;19.90;70.50;;;;;;5023236;28;20037;-57
2023/10/11 03:41:28;;;;;;;5.47;3.13;;;19.90;70.40;;;;;;5020557;28;20063;-54
2023/10/11 03:43:54;;;;;;;4.55;3.05;;;19.90;70.60;;;;;;5023100;28;20053;-53
2023/10/11 03:46:25;;;;;;;4.15;3.03;;;19.90;70.60;;;;;;5025553;28;20081;-57
2023/10/11 03:49:01;;;;;;;5.40;3.45;;;19.90;70.50;;;;;;5022058;28;20046;-54
2023/10/11 03:51:28;;;;;;;4.80;3.53;;;20.00;70.60;;;;;;5022884;28;20487;-55
2023/10/11 03:53:53;;;;;;;4.43;3.28;;;19.90;70.40;;;;;;5027676;28;20129;-53
2023/10/11 03:56:19;;;;;;;6.30;3.80;;;20.00;70.40;;;;;;5022919;28;20132;-57
2023/10/11 03:58:45;;;;;;;4.35;3.10;;;20.00;70.50;;;;;;5026404;28;20514;-59
2023/10/11 04:01:12;;;;;;;4.40;3.35;;;20.00;70.60;;;;;;5031933;28;20187;-58
2023/10/11 04:03:40;;;;;;;5.43;3.10;;;19.90;70.40;;;;;;5025235;28;20034;-56
2023/10/11 04:06:15;;;;;;;5.45;3.70;;;20.00;70.60;;;;;;5026987;28;20032;-57
2023/10/11 04:09:02;;;;;;;5.65;2.75;;;19.90;70.50;;;;;;5024320;28;20780;-56
2023/10/11 04:11:53;;;;;;;5.28;3.70;;;20.00;70.60;;;;;;5025659;28;20037;-55
2023/10/11 04:14:24;;;;;;;4.25;3.28;;;19.90;70.50;;;;;;5027435;28;20041;-53
2023/10/11 04:16:52;;;;;;;5.32;2.97;;;19.90;70.50;;;;;;5027628;28;20024;-55
2023/10/11 04:19:21;;;;;;;4.95;3.25;;;19.90;70.40;;;;;;5029348;28;20437;-56
2023/10/11 04:24:19;;;;;;;4.45;3.05;;;20.00;70.50;;;;;;5027283;28;20037;-55
2023/10/11 04:26:53;;;;;;;4.60;3.17;;;20.00;70.50;;;;;;5025827;28;20029;-55
2023/10/11 04:29:19;;;;;;;4.88;3.67;;;20.00;70.50;;;;;;5026129;28;20033;-53
2023/10/11 04:34:23;;;;;;;3.95;3.20;;;20.00;70.50;;;;;;5028258;28;20112;-57
2023/10/11 04:36:55;;;;;;;5.13;3.38;;;20.00;70.50;;;;;;5024424;28;20124;-52
2023/10/11 04:39:27;;;;;;;5.22;3.25;;;20.00;70.50;;;;;;5028084;28;20043;-54
2023/10/11 04:41:56;;;;;;;5.80;3.40;;;20.00;70.50;;;;;;5025855;28;20025;-51
2023/10/11 04:44:23;;;;;;;4.00;2.95;;;20.00;70.50;;;;;;5026781;28;20068;-56
2023/10/11 04:46:58;;;;;;;6.28;3.38;;;19.90;70.50;;;;;;5031111;28;20037;-57
2023/10/11 04:49:25;;;;;;;7.40;3.63;;;20.00;70.50;;;;;;5025486;28;20044;-57
2023/10/11 04:51:55;;;;;;;5.07;2.90;;;19.90;70.50;;;;;;5028529;28;20113;-54
2023/10/11 04:54:22;;;;;;;4.97;3.60;;;19.90;70.50;;;;;;5023243;28;20047;-55
2023/10/11 04:59:27;;;;;;;5.20;3.42;;;20.00;70.50;;;;;;5028824;28;20033;-58
2023/10/11 05:04:28;;;;;;;4.90;3.30;;;19.90;70.40;;;;;;5032404;28;20056;-56
2023/10/11 05:06:55;;;;;;;5.43;3.17;;;20.00;70.40;;;;;;5025493;28;20156;-55
2023/10/11 05:09:29;;;;;;;5.70;4.15;;;20.00;70.40;;;;;;5026344;28;20498;-54
2023/10/11 05:12:07;;;;;;;4.00;3.05;;;19.90;70.40;;;;;;5024045;28;20040;-56
2023/10/11 05:14:39;;;;;;;4.75;3.42;;;20.00;70.50;;;;;;5028335;28;20033;-59
2023/10/11 05:19:45;;;;;;;;;;;20.00;70.40;;;;;;5024718;28;20033;-55
2023/10/11 05:22:29;;;;;;;4.07;3.25;;;19.90;70.40;;;;;;5039200;28;19951;-55
2023/10/11 05:32:50;;;;;;;;;;;19.90;70.40;;;;;;5032447;28;20478;-55
2023/10/11 05:51:47;;;;;;;4.78;3.22;;;19.90;70.30;;;;;;5025901;28;20064;-58
2023/10/11 05:54:13;;;;;;;5.38;3.00;;;20.00;70.40;;;;;;5027537;28;20033;-54
2023/10/11 05:56:41;;;;;;;5.35;3.47;;;20.00;70.80;;;;;;5027723;28;20025;-55
2023/10/11 05:59:10;;;;;;;4.68;3.22;;;19.90;70.40;;;;;;5030602;28;20116;-55
2023/10/11 06:01:36;;;;;;;4.45;3.13;;;19.90;70.40;;;;;;5029454;28;20036;-60
2023/10/11 06:04:04;;;;;;;6.05;3.55;;;20.00;70.40;;;;;;5032122;28;20056;-59
2023/10/11 06:09:54;;;;;;;5.22;3.17;;;20.00;70.40;;;;;;5023161;28;20041;-54
2023/10/11 06:12:22;;;;;;;3.88;2.90;;;19.90;70.30;;;;;;5027392;28;20032;-58
2023/10/11 06:14:55;;;;;;;5.93;3.58;;;19.90;70.30;;;;;;5027914;28;20091;-56
2023/10/11 06:17:21;;;;;;;3.97;3.30;;;19.90;70.30;;;;;;5022822;28;20124;-58
2023/10/11 06:19:59;;;;;;;4.25;3.00;;;19.90;70.30;;;;;;5025662;28;20041;-56
2023/10/11 06:22:28;;;;;;;5.55;3.83;;;20.00;70.40;;;;;;5025467;28;20394;-57
2023/10/11 06:24:58;;;;;;;4.35;3.00;;;20.00;70.40;;;;;;5025480;28;20086;-56
2023/10/11 06:30:10;;;;;;;4.70;3.00;;;20.00;70.40;;;;;;5022947;28;20431;-56
2023/10/11 06:32:36;;;;;;;5.05;3.10;;;19.90;70.30;;;;;;5026528;28;20509;-57
2023/10/11 06:35:05;;;;;;;4.50;2.88;;;20.00;70.20;;;;;;5014319;28;20022;-57
2023/10/11 06:37:34;;;;;;;4.15;3.10;;;20.00;70.30;;;;;;5026596;28;20043;-57
2023/10/11 06:42:31;;;;;;;8.15;3.38;;;20.00;70.20;;;;;;5028774;28;20057;-57
2023/10/11 06:44:59;;;;;;;4.50;3.45;;;20.00;70.20;;;;;;5028126;28;20040;-56
2023/10/11 06:47:27;;;;;;;4.38;3.33;;;20.00;70.20;;;;;;5026082;28;20487;-57
2023/10/11 06:49:54;;;;;;;4.68;3.08;;;20.00;70.20;;;;;;5026732;28;20040;-56
2023/10/11 06:52:31;;;;;;;5.50;3.00;;;20.00;70.30;;;;;;5026351;28;20055;-57
2023/10/11 06:57:39;;;;;;;5.60;3.10;;;20.00;70.20;;;;;;5027494;28;20044;-58
2023/10/11 07:00:20;;;;;;;4.25;3.03;;;20.00;70.20;;;;;;5028750;28;20121;-57
2023/10/11 07:02:53;;;;;;;3.00;2.65;;;20.00;70.20;;;;;;5020610;28;20629;-57
2023/10/11 07:05:25;;;;;;;3.75;2.60;;;20.00;70.20;;;;;;5027545;28;20033;-55
2023/10/11 07:07:52;;;;;;;5.13;2.58;;;20.00;70.20;;;;;;5024154;28;20042;-55
2023/10/11 07:10:28;;;;;;;5.10;3.15;;;20.00;70.20;;;;;;5024604;28;20079;-57
2023/10/11 07:13:04;;;;;;;4.97;3.25;;;20.00;70.10;;;;;;5029395;28;20835;-57
2023/10/11 07:15:45;;;;;;;4.90;2.95;;;20.00;70.00;;;;;;5026222;28;20041;-56
2023/10/11 07:18:10;;;;;;;3.53;2.75;;;20.00;70.10;;;;;;5023506;28;20030;-56
2023/10/11 07:20:47;;;;;;;4.40;2.63;;;20.00;70.10;;;;;;5025056;28;20033;-56
2023/10/11 07:23:18;;;;;;;4.15;3.17;;;20.00;70.10;;;;;;5017401;28;20052;-59
2023/10/11 07:25:45;;;;;;;4.28;3.00;;;20.00;70.20;;;;;;5024616;28;20036;-56
2023/10/11 07:28:14;;;;;;;5.38;3.03;;;20.00;70.20;;;;;;5022992;28;20037;-57
2023/10/11 07:30:39;;;;;;;4.00;2.63;;;20.00;70.10;;;;;;5024460;28;20033;-56
2023/10/11 07:33:05;;;;;;;4.28;2.83;;;20.00;70.20;;;;;;5027822;28;20503;-55
2023/10/11 07:35:33;;;;;;;3.80;2.95;;;20.00;70.30;;;;;;5026404;28;20042;-55
2023/10/11 07:38:00;;;;;;;3.35;2.38;;;20.00;70.20;;;;;;5026424;28;20091;-57
2023/10/11 07:40:34;;;;;;;5.80;3.33;;;20.00;70.20;;;;;;5026913;28;20052;-58
2023/10/11 07:43:00;;;;;;;5.87;3.07;;;20.00;70.20;;;;;;5025267;28;20030;-58
2023/10/11 07:45:27;;;;;;;4.97;3.35;;;20.00;70.20;;;;;;5031760;28;20408;-58
2023/10/11 07:47:52;;;;;;;5.30;3.53;;;20.00;70.20;;;;;;5031072;28;20041;-56
2023/10/11 07:50:24;;;;;;;6.63;3.90;;;20.00;70.20;;;;;;5029521;28;20115;-57
2023/10/11 07:52:50;;;;;;;8.15;3.45;;;20.10;70.30;;;;;;5027670;28;20148;-57
2023/10/11 07:55:17;;;;;;;4.85;3.65;;;20.00;70.20;;;;;;5038938;28;20120;-57
2023/10/11 07:57:46;;;;;;;6.82;4.10;;;20.00;70.20;;;;;;5025231;28;20564;-62
2023/10/11 08:00:18;;;;;;;5.25;3.58;;;20.00;70.30;;;;;;5025731;28;20090;-56
2023/10/11 08:03:02;;;;;;;5.30;3.60;;;20.00;70.40;;;;;;5019005;28;20037;-57
2023/10/11 08:05:29;;;;;;;7.47;3.90;;;20.00;70.20;;;;;;5026414;28;20033;-57
2023/10/11 08:07:55;;;;;;;5.32;3.78;;;20.10;70.30;;;;;;5029466;28;20541;-56
2023/10/11 08:10:44;;;;;;;6.63;4.18;;;20.10;70.30;;;;;;5034959;28;20052;-55
2023/10/11 08:13:23;;;;;;;6.90;4.10;;;20.00;70.20;;;;;;5030726;28;20105;-57
2023/10/11 08:15:51;;;;;;;5.95;4.22;;;20.10;70.20;;;;;;5024644;28;20072;-56
2023/10/11 08:18:16;;;;;;;7.75;4.00;;;20.00;70.10;;;;;;5026585;28;20034;-56
2023/10/11 08:20:43;;;;;;;6.78;4.32;;;20.10;70.10;;;;;;5029146;28;20141;-55
2023/10/11 08:23:08;;;;;;;6.65;4.03;;;20.10;70.10;;;;;;5032064;28;20407;-57
2023/10/11 08:25:39;;;;;;;7.30;4.25;;;20.00;69.90;;;;;;5027873;28;20038;-57
2023/10/11 08:28:12;;;;;;;6.20;4.22;;;20.10;70.00;;;;;;5023988;28;20498;-56
2023/10/11 08:30:45;;;;;;;6.22;3.53;;;20.00;69.90;;;;;;5032233;28;20033;-54
2023/10/11 08:33:12;;;;;;;6.75;3.85;;;20.00;69.90;;;;;;5030946;28;20164;-56
2023/10/11 08:35:38;;;;;;;6.72;3.83;;;20.00;70.00;;;;;;5041498;28;20037;-56
2023/10/11 08:38:06;;;;;;;4.75;3.42;;;20.10;70.00;;;;;;5029181;28;20103;-56
2023/10/11 08:40:36;;;;;;;5.72;3.75;;;20.10;70.00;;;;;;5031624;28;21785;-55
2023/10/11 08:43:03;;;;;;;4.65;3.90;;;20.10;69.90;;;;;;5028153;28;20500;-57
2023/10/11 08:45:33;;;;;;;7.50;4.38;;;20.10;69.90;;;;;;5029545;28;20029;-54
2023/10/11 08:48:08;;;;;;;7.43;4.30;;;20.10;69.80;;;;;;5027801;28;20114;-57
2023/10/11 08:50:34;;;;;;;7.10;4.63;;;20.10;69.80;;;;;;5029868;28;20107;-55
2023/10/11 08:53:07;;;;;;;4.88;3.95;;;20.10;69.80;;;;;;5029958;28;20036;-56
2023/10/11 08:55:35;;;;;;;7.70;4.20;;;20.10;69.80;;;;;;5025996;28;20965;-56
2023/10/11 08:58:04;;;;;;;5.78;3.88;;;20.10;69.80;;;;;;5024078;28;20033;-56
2023/10/11 09:00:31;;;;;;;7.25;3.88;;;20.10;69.70;;;;;;5029207;28;20026;-57
2023/10/11 09:02:58;;;;;;;6.93;4.00;;;20.10;69.70;;;;;;5023626;28;20036;-55
2023/10/11 09:05:42;;;;;;;5.43;3.85;;;20.10;69.70;;;;;;5027406;28;20116;-56
2023/10/11 09:08:21;;;;;;;6.35;3.75;;;20.10;69.60;;;;;;5028911;28;20037;-56
2023/10/11 09:10:49;;;;;;;5.57;3.78;;;20.10;69.60;;;;;;5023437;28;20026;-56
2023/10/11 09:13:25;;;;;;;5.22;4.03;;;20.10;69.60;;;;;;5015045;28;20262;-56
2023/10/11 09:15:54;;;;;;;6.65;3.70;;;20.10;69.60;;;;;;5025756;28;20044;-57
2023/10/11 09:18:21;;;;;;;6.82;3.90;;;20.10;69.50;;;;;;5043635;28;20041;-57
2023/10/11 09:20:58;;;;;;;6.43;4.07;;;20.10;69.50;;;;;;5030472;28;20033;-57
2023/10/11 09:23:37;;;;;;;6.50;4.22;;;20.10;69.50;;;;;;5026309;28;20037;-56
2023/10/11 09:26:05;;;;;;;6.82;3.97;;;20.10;69.50;;;;;;5027156;28;20025;-56
2023/10/11 09:28:34;;;;;;;7.68;3.88;;;20.10;69.50;;;;;;5030834;28;20040;-55
2023/10/11 09:31:12;;;;;;;6.07;3.65;;;20.10;69.50;;;;;;5028000;28;20033;-57
2023/10/11 09:33:46;;;;;;;6.43;3.88;;;20.10;69.40;;;;;;5035383;28;20194;-54
2023/10/11 09:36:12;;;;;;;5.55;3.90;;;20.10;69.40;;;;;;5027833;28;20574;-57
2023/10/11 09:38:40;;;;;;;6.85;3.85;;;20.10;69.40;;;;;;5032002;28;20032;-56
2023/10/11 09:41:10;;;;;;;5.18;3.95;;;20.10;69.30;;;;;;5026400;28;20116;-56
2023/10/11 09:43:44;;;;;;;6.00;3.55;;;20.10;69.30;;;;;;5025767;28;20034;-58
2023/10/11 09:46:13;;;;;;;6.90;3.85;;;20.10;69.30;;;;;;5027469;28;20418;-55
2023/10/11 09:48:42;;;;;;;5.70;3.78;;;20.10;69.30;;;;;;5034534;23;20053;-57
2023/10/11 09:51:14;;;;;;;5.45;3.97;;;20.20;69.30;;;;;;5013398;28;20041;-54
2023/10/11 09:53:50;;;;;;;4.63;3.42;;;20.10;69.20;;;;;;5013843;28;20053;-56
2023/10/11 09:56:24;;;;;;;5.88;3.55;;;20.20;69.20;;;;;;5011898;28;20505;-57
2023/10/11 09:59:05;;;;;;;6.38;4.18;;;20.10;69.20;;;;;;5013786;28;20133;-57
2023/10/11 10:01:41;;;;;;;6.03;4.30;;;20.10;69.20;;;;;;5021518;28;20099;-58
2023/10/11 10:04:09;;;;;;;;;;;20.10;69.20;;;;;;5013989;28;20486;-57
2023/10/11 10:06:34;;;;;;;7.82;4.30;;;20.10;69.10;;;;;;5019501;28;20908;-54
2023/10/11 10:12:11;;;;;;;6.65;4.15;;;20.10;69.10;;;;;;5014702;28;20030;-53
2023/10/11 10:14:38;;;;;;;5.57;3.97;;;20.10;69.10;;;;;;5010028;28;20478;-51
2023/10/11 10:17:15;;;;;;;5.60;3.45;;;20.10;69.10;;;;;;5016831;28;20068;-55
2023/10/11 10:19:48;;;;;;;5.55;3.40;;;20.10;69.10;;;;;;5010297;28;20088;-52
2023/10/11 10:22:15;;;;;;;6.03;3.78;;;20.10;69.10;;;;;;5000226;28;20745;-57
2023/10/11 10:24:43;;;;;;;6.55;3.90;;;20.20;69.10;;;;;;5012810;28;20487;-55
2023/10/11 10:28:09;;;;;;;6.00;3.65;;;20.10;69.10;;;;;;5011467;28;20033;-54
2023/10/11 10:30:21;;;;;;;4.57;3.60;;;20.20;69.00;;;;;;5013050;28;20486;-55
2023/10/11 10:33:19;;;;;;;5.75;3.83;;;20.20;69.00;;;;;;5014921;28;20018;-54
2023/10/11 10:35:45;;;;;;;5.63;4.07;;;20.10;69.00;;;;;;5011708;28;20037;-57
2023/10/11 10:38:10;;;;;;;7.35;3.78;;;20.10;68.90;;;;;;5013660;28;20034;-58
2023/10/11 10:40:46;;;;;;;6.68;3.72;;;20.10;68.90;;;;;;5013456;28;20052;-57
2023/10/11 10:43:23;;;;;;;10.63;4.38;;;20.10;68.90;;;;;;5010629;28;20036;-47
2023/10/11 10:45:53;;;;;;;5.28;3.42;;;20.20;68.10;;;;;;5009090;28;20038;-49
2023/10/11 10:48:23;;;;;;;8.10;4.45;;;20.20;68.30;;;;;;5008501;28;20025;-48
2023/10/11 10:50:52;;;;;;;7.93;3.83;;;20.20;68.40;;;;;;5007282;28;20037;-49
2023/10/11 10:53:20;;;;;;;9.00;3.92;;;20.20;68.30;;;;;;5009891;28;20119;-47
2023/10/11 10:55:46;;;;;;;6.72;3.95;;;20.20;68.40;;;;;;5015711;28;20502;-47
2023/10/11 10:58:19;;;;;;;6.50;3.90;;;20.20;67.90;;;;;;5015210;28;20053;-47
2023/10/11 11:00:51;;;;;;;6.60;3.85;;;20.20;68.10;;;;;;5013213;28;20037;-48
2023/10/11 11:03:21;;;;;;;9.93;3.72;;;20.20;68.20;;;;;;5010150;28;20061;-49
2023/10/11 11:05:58;;;;;;;6.60;3.72;;;20.20;68.10;;;;;;5021345;28;20103;-50
2023/10/11 11:08:27;;;;;;;7.40;4.03;;;20.20;67.90;;;;;;5008360;28;20097;-48
2023/10/11 11:11:19;;;;;;;6.90;3.60;;;20.20;68.10;;;;;;5012882;28;20683;-50
2023/10/11 11:13:49;;;;;;;7.75;3.90;;;20.20;68.20;;;;;;5007244;28;20482;-51
2023/10/11 11:16:19;;;;;;;9.27;3.85;;;20.20;67.90;;;;;;5007912;28;20349;-49
2023/10/11 11:18:46;;;;;;;6.60;3.60;;;20.20;67.60;;;;;;5013458;28;20038;-48
2023/10/11 11:21:30;;;;;;;7.20;3.35;;;20.20;67.80;;;;;;5012963;28;20038;-48
2023/10/11 11:24:18;;;;;;;5.97;3.78;;;20.20;68.00;;;;;;5013014;28;20032;-49
2023/10/11 11:26:44;;;;;;;8.98;4.40;;;20.20;67.90;;;;;;5027875;28;20175;-49
2023/10/11 11:29:14;;;;;;;5.72;3.67;;;20.20;67.90;;;;;;5016044;28;20763;-48
2023/10/11 11:31:53;;;;;;;5.38;3.63;;;20.20;68.10;;;;;;5015926;28;20040;-47
2023/10/11 11:34:27;;;;;;;7.78;4.30;;;20.20;68.00;;;;;;5015272;28;20030;-51
2023/10/11 11:36:57;;;;;;;7.68;3.83;;;20.20;67.90;;;;;;5017911;28;20025;-47
2023/10/11 11:39:36;;;;;;;10.52;4.38;;;20.20;67.80;;;;;;5013964;28;21471;-47
2023/10/11 11:42:07;;;;;;;7.82;4.45;;;20.20;67.70;;;;;;5018720;28;20101;-47
2023/10/11 11:44:33;;;;;;;9.40;4.10;;;20.20;67.80;;;;;;5014556;28;20088;-47
2023/10/11 11:47:05;;;;;;;6.15;3.63;;;20.20;67.70;;;;;;5011882;28;20026;-47
2023/10/11 11:49:33;;;;;;;6.57;4.47;;;20.20;67.50;;;;;;5007532;28;20125;-53
2023/10/11 11:51:59;;;;;;;6.80;4.30;;;20.20;67.40;;;;;;5015326;28;20032;-49
2023/10/11 11:54:28;;;;;;;6.35;3.75;;;20.20;67.50;;;;;;5019513;28;20125;-51
2023/10/11 11:56:55;;;;;;;8.23;4.43;;;20.20;67.40;;;;;;5012729;28;20117;-50
2023/10/11 11:59:21;;;;;;;5.43;3.55;;;20.20;67.60;;;;;;5014051;28;20034;-48
2023/10/11 12:01:53;;;;;;;8.20;3.80;;;20.20;67.70;;;;;;5018524;28;20026;-48
2023/10/11 12:04:29;;;;;;;6.88;3.75;;;20.20;67.50;;;;;;5009789;28;20033;-49
2023/10/11 12:07:05;;;;;;;10.55;4.25;;;20.20;67.40;;;;;;5015568;28;20040;-48
2023/10/11 12:09:35;;;;;;;8.25;3.70;;;20.20;66.70;;;;;;5014457;28;20033;-51
2023/10/11 12:12:03;;;;;;;8.15;3.92;;;20.20;66.60;;;;;;5014447;28;20025;-47
2023/10/11 12:14:30;;;;;;;8.20;3.70;;;20.30;66.90;;;;;;5010446;28;20103;-50
2023/10/11 12:16:56;;;;;;;9.25;3.60;;;20.20;67.10;;;;;;5012692;28;20044;-48
2023/10/11 12:19:22;;;;;;;6.47;3.50;;;20.20;67.20;;;;;;5009451;28;20124;-48
2023/10/11 12:21:57;;;;;;;7.22;3.55;;;20.20;67.20;;;;;;5016318;28;20025;-48
2023/10/11 12:24:25;;;;;;;5.55;3.85;;;20.20;67.00;;;;;;5017050;28;20030;-50
2023/10/11 12:26:53;;;;;;;5.85;3.58;;;20.30;67.30;;;;;;5012755;28;20133;-50
2023/10/11 12:29:21;;;;;;;5.68;3.80;;;20.20;67.00;;;;;;5027287;28;20033;-51
2023/10/11 12:31:47;;;;;;;7.13;3.67;;;20.30;67.00;;;;;;5014913;28;20029;-52
2023/10/11 12:34:13;;;;;;;5.55;3.50;;;20.30;66.80;;;;;;5013711;28;20034;-52
2023/10/11 12:36:41;;;;;;;9.25;4.30;;;20.30;66.70;;;;;;5016800;28;20049;-50
2023/10/11 12:39:08;;;;;;;7.22;3.80;;;20.30;67.00;;;;;;5015587;28;20034;-50
2023/10/11 12:41:36;;;;;;;8.27;4.05;;;20.30;67.00;;;;;;5015448;28;20113;-51
2023/10/11 12:44:03;;;;;;;11.23;4.03;;;20.30;67.20;;;;;;5017684;28;20030;-51
2023/10/11 12:46:29;;;;;;;8.90;3.88;;;20.20;67.30;;;;;;5010223;28;20120;-51
2023/10/11 12:48:54;;;;;;;8.45;3.85;;;20.20;67.40;;;;;;5020748;28;20769;-49
2023/10/11 12:51:22;;;;;;;11.05;4.15;;;20.30;67.00;;;;;;5013395;28;20041;-50
2023/10/11 12:53:47;;;;;;;7.35;3.70;;;20.30;67.30;;;;;;5017550;28;20498;-51
2023/10/11 12:56:14;;;;;;;6.88;3.70;;;20.30;66.60;;;;;;5012669;28;20042;-51
2023/10/11 12:58:40;;;;;;;8.30;3.75;;;20.30;66.80;;;;;;5015138;28;20022;-47
2023/10/11 13:01:11;;;;;;;7.25;3.85;;;20.30;66.40;;;;;;5006206;28;20048;-50
2023/10/11 13:03:38;;;;;;;7.18;3.75;;;20.30;66.40;;;;;;5016916;28;20092;-50
2023/10/11 13:06:05;;;;;;;5.50;3.22;;;20.30;67.10;;;;;;5017606;28;20036;-49
2023/10/11 13:08:33;;;;;;;7.90;3.92;;;20.30;66.80;;;;;;5016287;28;20033;-47
2023/10/11 13:11:00;;;;;;;9.88;3.70;;;20.30;66.40;;;;;;5013583;28;20022;-50
2023/10/11 13:13:27;;;;;;;7.95;4.05;;;20.30;65.90;;;;;;5011033;28;20056;-50
2023/10/11 13:15:58;;;;;;;6.00;3.65;;;20.30;66.40;;;;;;5008824;28;20041;-50
2023/10/11 13:18:40;;;;;;;8.57;4.32;;;20.30;66.50;;;;;;5010185;28;20038;-51
2023/10/11 13:21:11;;;;;;;10.25;4.13;;;20.50;65.50;;;;;;5017470;28;20137;-48
2023/10/11 13:23:39;;;;;;;10.77;4.28;;;20.70;64.50;;;;;;5017821;28;20152;-50
2023/10/11 13:26:07;;;;;;;10.90;4.57;;;20.70;63.90;;;;;;5017143;28;20033;-47
2023/10/11 13:28:36;;;;;;;7.65;4.05;;;20.70;64.20;;;;;;5021260;28;20608;-50
2023/10/11 13:31:05;;;;;;;11.77;4.00;;;20.50;64.60;;;;;;5018645;28;20109;-48
2023/10/11 13:33:35;;;;;;;8.63;3.22;;;20.50;65.20;;;;;;5017235;28;20037;-48
2023/10/11 13:36:02;;;;;;;10.15;4.32;;;20.50;65.50;;;;;;5017667;28;20030;-47
2023/10/11 13:38:31;;;;;;;5.32;3.63;;;20.40;64.90;;;;;;5014490;28;20050;-50
2023/10/11 13:40:58;;;;;;;9.73;3.92;;;20.40;65.70;;;;;;5011029;28;20041;-50
2023/10/11 13:43:24;;;;;;;7.05;3.92;;;20.40;66.10;;;;;;5014891;28;20379;-48
2023/10/11 13:45:56;;;;;;;4.63;3.10;;;20.40;65.90;;;;;;5023929;28;20029;-47
2023/10/11 13:48:36;;;;;;;6.68;3.47;;;20.40;65.80;;;;;;5009387;28;20038;-48
2023/10/11 13:51:03;;;;;;;5.55;3.50;;;20.40;65.90;;;;;;5027510;28;20048;-50
2023/10/11 13:53:30;;;;;;;7.22;3.70;;;20.40;66.30;;;;;;5011987;28;20036;-47
2023/10/11 13:56:09;;;;;;;6.22;3.40;;;20.40;66.10;;;;;;5032834;28;20418;-46
2023/10/11 13:58:35;;;;;;;7.05;3.72;;;20.40;66.30;;;;;;5018428;28;20526;-49
2023/10/11 14:01:01;;;;;;;6.90;3.67;;;20.40;66.20;;;;;;5016914;28;20036;-50
2023/10/11 14:06:12;;;;;;;5.95;3.75;;;20.40;65.80;;;;;;5014759;28;20550;-51
2023/10/11 14:08:44;;;;;;;5.38;3.47;;;20.40;66.30;;;;;;5012142;28;20866;-51